Nearby METAR Reports

 

KBVO - Bartlesville, Oklahoma, USA
Distance from station: WNW 10mi, 16km
Updated: Tue, 24-Apr-2018 5:31am CDT
Mist, Clear
Mist, Clear
 Wind from calm
Wind: Calm
Temperature: 41°F , 5°C
Dew Point: 39°F , 4°C
Humidity: 93%
Barometer: 30.08 inHg , 1018.6 hPa
Summary: Mist
Clouds: Clear
Visibility: 3/4 mile , 5 km
2018/04/24 10:31 KBVO 241031Z AUTO 00000KT 3/4SM BR CLR 05/04 A3008 RMK AO2 T00500044
KCFV - Coffeyville, Kansas, USA
Distance from station: NNE 31mi, 49km
Updated: Tue, 24-Apr-2018 4:52am CDT
Clear
Clear
 Wind from NNW
Wind: NNW 3 mph , 6 km/h
Temperature: 46°F , 8°C
Dew Point: 45°F , 7°C
Humidity: 93%
Barometer: 30.06 inHg , 1017.9 hPa
Clouds: Clear
Visibility: 10 miles , 16 km
2018/04/24 09:52 KCFV 240952Z AUTO 34003KT 10SM CLR 08/07 A3006 RMK AO2 SLP178 T00830072
 
KIDP - Independence, Kansas, USA
Distance from station: N 32mi, 52km
Updated: Tue, 24-Apr-2018 5:35am CDT
Clear
Clear
 Wind from NNE
Wind: NNE 6 mph , 9 km/h
Temperature: 46°F , 8°C
Wind Chill: 43°F , 6°C
Dew Point: 43°F , 6°C
Humidity: 87%
Barometer: 30.08 inHg , 1018.6 hPa
Clouds: Clear
Visibility: 10 miles , 16 km
2018/04/24 10:35 KIDP 241035Z AUTO 02005KT 10SM CLR 08/06 A3008 RMK AO2 T00760064
KGCM - Claremore, Oklahoma, USA
Distance from station: SE 35mi, 56km
Updated: Tue, 24-Apr-2018 5:35am CDT
Clear
Clear
 Wind from calm
Wind: Calm
Temperature: 43°F , 6°C
Dew Point: 41°F , 5°C
Humidity: 93%
Barometer: 30.07 inHg , 1018.3 hPa
Clouds: Clear
Visibility: 10 miles , 16 km
2018/04/24 10:35 KGCM 241035Z AUTO 00000KT 10SM CLR 06/05 A3007 RMK AO2
 
KTUL - Tulsa, Oklahoma, USA
Distance from station: S 35mi, 56km
Updated: Tue, 24-Apr-2018 4:53am CDT
Clear
Clear
 Wind from NNW
Wind: NNW 3 mph , 6 km/h
Temperature: 52°F , 11°C
Dew Point: 46°F , 8°C
Humidity: 82%
Barometer: 30.04 inHg , 1017.3 hPa
Clouds: Clear
Visibility: 10 miles , 16 km
2018/04/24 09:53 KTUL 240953Z 34003KT 10SM CLR 11/08 A3004 RMK AO2 SLP169 T01060083
KRVS - Tulsa, Oklahoma, USA
Distance from station: S 46mi, 74km
Updated: Tue, 24-Apr-2018 4:53am CDT
Clear
Clear
 Wind from calm
Wind: Calm
Temperature: 48°F , 9°C
Dew Point: 46°F , 8°C
Humidity: 94%
Barometer: 30.05 inHg , 1017.6 hPa
Clouds: Clear
Visibility: 7 miles , 11 km
2018/04/24 09:53 KRVS 240953Z AUTO 00000KT 7SM CLR 09/08 A3005 RMK AO2 SLP184 T00890078
 
KPPF - Parsons, Kansas, USA
Distance from station: NNE 48mi, 76km
Updated: Tue, 24-Apr-2018 4:52am CDT
Clear
Clear
 Wind from NNW
Wind: NNW 5 mph , 7 km/h
Temperature: 45°F , 7°C
Wind Chill: 42°F , 6°C
Dew Point: 39°F , 4°C
Humidity: 81%
Barometer: 30.08 inHg , 1018.6 hPa
Clouds: Clear
Visibility: 10 miles , 16 km
2018/04/24 09:52 KPPF 240952Z AUTO 34004KT 10SM CLR 07/04 A3008 RMK AO2 SLP182 T00720044
KGMJ - Grove, Oklahoma, USA
Distance from station: E 63mi, 101km
Updated: Tue, 24-Apr-2018 5:35am CDT
Clear
Clear
 Wind from calm
Wind: Calm
Temperature: 45°F , 7°C
Dew Point: 43°F , 6°C
Humidity: 93%
Barometer: 30.07 inHg , 1018.3 hPa
Clouds: Clear
Visibility: 10 miles , 16 km
2018/04/24 10:35 KGMJ 241035Z AUTO 00000KT 10SM CLR 07/06 A3007 RMK AO2
 
KPNC - Ponca City, Oklahoma, USA
Distance from station: W 69mi, 111km
Updated: Tue, 24-Apr-2018 4:53am CDT
Clear
Clear
 Wind from calm
Wind: Calm
Temperature: 46°F , 8°C
Dew Point: 43°F , 6°C
Humidity: 87%
Barometer: 30.06 inHg , 1017.9 hPa
Clouds: Clear
Visibility: 10 miles , 16 km
2018/04/24 09:53 KPNC 240953Z AUTO 00000KT 10SM CLR 08/06 A3006 RMK AO2 SLP174 T00780061
KCNU - Chanute, Kansas, USA
Distance from station: NNE 69mi, 112km
Updated: Tue, 24-Apr-2018 4:52am CDT
Clear
Clear
 Wind from NNW
Wind: NNW 5 mph , 7 km/h
Temperature: 46°F , 8°C
Wind Chill: 44°F , 7°C
Dew Point: 39°F , 4°C
Humidity: 76%
Barometer: 30.08 inHg , 1018.6 hPa
Clouds: Clear
Visibility: 10 miles , 16 km
2018/04/24 09:52 KCNU 240952Z AUTO 34004KT 10SM CLR 08/04 A3008 RMK AO2 SLP181 T00780044